Airfield :
LOGIN :

Register | Disclaimer

   EN    FR    IT 

 










Legend :    VFR   Marginal VFR   IFR   Intensive IFR   Very Intensive IFR
Visi :
Ceiling :
>= 8 km
>= 3000ft
5 to 8 km
1000 to 3000 ft
1500m to 5 km
500 to 1000 ft
800 to 1500m
200 to 500 ft
< 800m
< 200 ft
Symbols :   Thunderstorms  Fog  Heavy snow  Heavy precipitations  Wind > 20 kt
SIGMETs :     Misc.  Thunderstorms  Icing  Turbulence  Mountain Waves  Volcanic Ashes






- Airport Elevation : 194 ft
- IATA code : ANE


LFJR - Angers Marcé

CURRENT METAR :
  • 030800Z AUTO 33006KT 290V020 9999 FEW035 17/12 Q1022

EXPIRED METARs :
  • 030730Z AUTO 34006KT 310V010 9999 FEW043 16/11 Q1022
  • 030700Z AUTO 34006KT 310V010 9999 BKN038 16/12 Q1022
  • 030630Z AUTO 35006KT 310V020 9999 BKN034 BKN042 15/12 Q1022
  • 030600Z AUTO 35006KT 320V020 9999 BKN043 14/12 Q1022
  • 030530Z AUTO 34004KT 310V010 9999 FEW035 SCT043 13/12 Q1022

Expired Forecast.



MET'MAP, your aeronautical weather chart ! - Copyright ORBIFLY December 2007 - Disclaimer

ORBIFLY MET'MAP TEAM :

Programming & Development : Alexandra Zaïnal
Original concept : Baudouin d'Aumeries
Technical & hardware support : Manuel Goepfert
Assistance : Marc-Olivier Méhu




SOURCES & CREDITS :

   NOAA